Hlavní strana
METAR-TAF:

METAR-TAF

Letiště :

Orenburg, Rusko

zeměpisná šířka: 51-46-48N, zeměpisná délka: 055-07-12E, výška: 109 m

Aktuální stav počasí

Zpráva byla vytvořena před 35 minutami, v 02:00 UTC
Bezvětří
Teplota 10°C
Vlhkost vzduchu 66%
Tlak 1016 hPa
Viditelnost 10 km a více
Žádná oblačnost pod 1500 m, nevyskytují se cumulonimby.

METAR: UWOO 090200Z 00000MPS CAVOK 10/04 Q1016 R26/CLRD65 NOSIG RMK QFE751/1002

Čas: 07:35 (02:35 UTC)

Předpověď počasí

Zpráva byla vytvořena před 3 hodinami a 54 minutami, v 22:41 UTC
Předpověď platná od 09 v 00 UTC do 09 v 24 UTC
Jihozápadní vítr 6 kt s nárazy do 23 kt
Viditelnost 10 km a více
Polojasno ve výšce 3000 ft
Dočasný
od 09 v 00 UTC do 09 v 24 UTC
vítr z různých směrů 2 kt

TAF: UWOO 082241Z 0900/0924 23003G12MPS 9999 SCT030 TX26/0911Z TN06/0903Z TEMPO 0900/0924 VRB01MPS

Stav a předpovědi počasí z více než 4 000 letišť (zprávy METAR a TAF).

Červené a žluté tečky na mapě představují dostupné meteorologické stanice.

Když kurzor umístíte na tečku, zobrazí se název stanice.

Pak kliknutím zobrazíte stav a předpověď počasí.

Chcete-li změnit mapu, kliknutím na zelené tlačítko se znaménkem +mapu přiblížíte, kliknutím na zelené tlačítko se znaménkem – mapu oddálíte a kliknutím na zelené šipky přejdete na sousední mapy.


METAR-TAF: